createdAt,value
2022-12-26T00:01:10.883Z,26.90
2022-12-26T00:03:39.280Z,27.40
2022-12-26T00:06:14.504Z,29.70
2022-12-26T00:08:42.639Z,27.15
2022-12-26T00:11:10.767Z,27.10
2022-12-26T00:13:41.567Z,26.65
2022-12-26T00:16:11.102Z,26.05
2022-12-26T00:18:39.350Z,24.67
2022-12-26T00:21:07.663Z,26.02
2022-12-26T00:23:37.412Z,22.92
2022-12-26T00:26:05.680Z,24.45
2022-12-26T00:28:33.817Z,24.88
2022-12-26T00:31:05.071Z,24.88
2022-12-26T00:33:33.226Z,24.00
2022-12-26T00:36:02.756Z,24.80
2022-12-26T00:38:31.099Z,24.95
2022-12-26T00:41:00.572Z,24.58
2022-12-26T00:43:28.731Z,23.40
2022-12-26T00:45:56.831Z,23.90
2022-12-26T00:48:25.412Z,23.50
2022-12-26T00:50:53.561Z,24.48
2022-12-26T00:53:21.852Z,24.33
2022-12-26T00:55:49.923Z,22.80
2022-12-26T00:58:19.530Z,22.83
2022-12-26T01:00:47.661Z,23.48
2022-12-26T01:03:16.047Z,22.55
2022-12-26T01:05:44.252Z,23.73
2022-12-26T01:08:19.501Z,22.85
2022-12-26T01:10:50.385Z,20.65
2022-12-26T01:13:19.892Z,22.38
2022-12-26T01:15:51.712Z,22.15
2022-12-26T01:18:20.032Z,21.88
2022-12-26T01:20:48.166Z,22.67
2022-12-26T01:23:16.236Z,21.38
2022-12-26T01:26:16.909Z,21.45
2022-12-26T01:28:33.846Z,20.92
2022-12-26T01:31:04.828Z,18.85
2022-12-26T01:33:33.051Z,20.70
2022-12-26T01:36:01.222Z,20.02
2022-12-26T01:38:29.451Z,20.48
2022-12-26T01:41:11.398Z,20.08
2022-12-26T01:43:57.611Z,20.25
2022-12-26T01:46:28.635Z,20.95
2022-12-26T01:48:57.447Z,19.83
2022-12-26T01:51:25.677Z,19.08
2022-12-26T01:53:54.997Z,19.65
2022-12-26T01:56:43.601Z,19.65
2022-12-26T01:59:14.660Z,17.42
2022-12-26T02:01:43.005Z,17.92
2022-12-26T02:04:30.852Z,19.05
2022-12-26T02:06:59.067Z,18.40
2022-12-26T02:09:27.176Z,18.80
2022-12-26T02:12:36.626Z,19.23
2022-12-26T02:14:47.009Z,17.48
2022-12-26T02:17:15.152Z,18.08
2022-12-26T02:19:47.106Z,17.48
2022-12-26T02:22:31.809Z,16.48
2022-12-26T02:25:10.803Z,18.63
2022-12-26T02:28:03.289Z,16.85
2022-12-26T02:30:38.091Z,18.02
2022-12-26T02:33:18.598Z,17.30
2022-12-26T02:36:01.052Z,17.02
2022-12-26T02:38:35.000Z,18.38
2022-12-26T02:41:08.752Z,16.95
2022-12-26T02:43:39.748Z,17.20
2022-12-26T02:46:30.825Z,16.60
2022-12-26T02:48:59.961Z,16.05
2022-12-26T02:51:56.861Z,15.50
2022-12-26T02:54:48.751Z,16.38
2022-12-26T02:57:37.081Z,15.82
2022-12-26T03:00:24.675Z,16.85
2022-12-26T03:03:12.248Z,16.30
2022-12-26T03:05:59.568Z,17.25
2022-12-26T03:08:47.921Z,16.13
2022-12-26T03:11:33.426Z,15.25
2022-12-26T03:14:06.694Z,15.55
2022-12-26T03:16:52.045Z,16.10
2022-12-26T03:19:21.599Z,16.30
2022-12-26T03:21:49.662Z,16.13
2022-12-26T03:24:17.784Z,17.30
2022-12-26T03:26:48.471Z,15.05
2022-12-26T03:29:34.731Z,16.23
2022-12-26T03:32:04.204Z,15.80
2022-12-26T03:34:33.817Z,13.77
2022-12-26T03:37:47.154Z,14.10
2022-12-26T03:40:40.262Z,14.95
2022-12-26T03:43:29.576Z,15.07
2022-12-26T03:46:19.528Z,14.40
2022-12-26T03:49:08.420Z,14.85
2022-12-26T03:51:58.203Z,13.73
2022-12-26T03:54:51.295Z,15.48
2022-12-26T03:57:37.466Z,13.32
2022-12-26T04:00:24.348Z,15.50
2022-12-26T04:03:10.249Z,15.00
2022-12-26T04:05:56.998Z,14.95
2022-12-26T04:08:46.292Z,13.55
2022-12-26T04:11:33.036Z,14.20
2022-12-26T04:14:20.331Z,13.20
2022-12-26T04:17:08.018Z,12.90
2022-12-26T04:19:48.546Z,12.70
2022-12-26T04:22:36.798Z,13.07
2022-12-26T04:25:50.275Z,13.00
2022-12-26T04:28:31.572Z,12.25
2022-12-26T04:31:19.456Z,12.95
2022-12-26T04:34:07.840Z,13.52
2022-12-26T04:36:56.078Z,12.93
2022-12-26T04:39:42.584Z,12.73
2022-12-26T04:42:29.242Z,12.32
2022-12-26T04:44:57.470Z,12.75
2022-12-26T04:47:25.517Z,12.60
2022-12-26T04:50:11.261Z,12.00
2022-12-26T04:52:59.784Z,12.15
2022-12-26T04:55:29.615Z,12.52
2022-12-26T04:57:59.154Z,11.45
2022-12-26T05:00:29.282Z,11.23
2022-12-26T05:03:29.234Z,12.32
2022-12-26T05:06:14.900Z,13.02
2022-12-26T05:09:00.986Z,11.93
2022-12-26T05:11:29.230Z,12.13
2022-12-26T05:13:58.972Z,12.00
2022-12-26T05:16:44.690Z,12.18
2022-12-26T05:19:30.209Z,10.88
2022-12-26T05:22:16.232Z,11.07
2022-12-26T05:25:02.046Z,11.98
2022-12-26T05:27:49.277Z,11.63
2022-12-26T05:30:18.938Z,10.55
2022-12-26T05:33:04.398Z,10.55
2022-12-26T05:35:32.557Z,10.70
2022-12-26T05:38:00.599Z,11.43
2022-12-26T05:40:28.770Z,12.20
2022-12-26T05:42:56.900Z,10.80
2022-12-26T05:45:26.397Z,10.35
2022-12-26T05:47:59.335Z,11.05
2022-12-26T05:50:27.548Z,11.40
2022-12-26T05:52:57.344Z,10.60
2022-12-26T05:55:25.530Z,11.98
2022-12-26T05:57:53.556Z,10.02
2022-12-26T06:00:21.757Z,10.88
2022-12-26T06:02:51.424Z,10.90
2022-12-26T06:05:19.771Z,10.50
2022-12-26T06:07:47.806Z,10.98
2022-12-26T06:10:16.069Z,9.13
2022-12-26T06:12:44.159Z,10.10
2022-12-26T06:15:12.908Z,9.52
2022-12-26T06:17:40.999Z,10.20
2022-12-26T06:20:11.361Z,10.90
2022-12-26T06:22:39.580Z,9.25
2022-12-26T06:25:08.700Z,9.85
2022-12-26T06:27:36.764Z,9.52
2022-12-26T06:30:05.551Z,12.20
2022-12-26T06:32:33.591Z,10.30
2022-12-26T06:35:01.690Z,9.85
2022-12-26T06:37:31.524Z,9.43
2022-12-26T06:39:59.621Z,9.60
2022-12-26T06:42:28.574Z,10.30
2022-12-26T06:44:56.696Z,12.65
2022-12-26T06:47:24.734Z,12.30
2022-12-26T06:49:52.869Z,12.90
2022-12-26T06:52:21.064Z,13.73
2022-12-26T06:54:50.542Z,15.25
2022-12-26T06:57:18.683Z,16.58
2022-12-26T06:59:46.744Z,19.58
2022-12-26T07:02:14.979Z,18.95
2022-12-26T07:04:43.259Z,19.80
2022-12-26T07:07:11.423Z,26.10
2022-12-26T07:09:39.522Z,38.65
2022-12-26T07:12:09.104Z,34.45
2022-12-26T07:14:37.886Z,45.17
2022-12-26T07:17:06.008Z,58.25
2022-12-26T07:19:34.127Z,55.85
2022-12-26T07:22:02.231Z,49.22
2022-12-26T07:24:31.039Z,46.80
2022-12-26T07:26:59.127Z,48.55
2022-12-26T07:29:28.642Z,40.00
2022-12-26T07:31:58.206Z,49.28
2022-12-26T07:34:31.337Z,45.17
2022-12-26T07:37:01.286Z,45.92
2022-12-26T07:39:29.400Z,56.17
2022-12-26T07:42:00.406Z,51.05
2022-12-26T07:44:30.746Z,53.10
2022-12-26T07:46:58.896Z,55.10
2022-12-26T07:49:27.166Z,60.35
2022-12-26T07:51:55.336Z,60.47
2022-12-26T07:54:23.661Z,49.70
2022-12-26T07:56:51.815Z,55.92
2022-12-26T07:59:19.872Z,49.85
2022-12-26T08:01:49.476Z,57.65
2022-12-26T08:04:17.761Z,52.08
2022-12-26T08:06:47.225Z,65.15
2022-12-26T08:09:17.077Z,67.82
2022-12-26T08:11:45.546Z,71.60
2022-12-26T08:14:13.857Z,56.83
2022-12-26T08:16:42.059Z,56.05
2022-12-26T08:19:11.600Z,58.80
2022-12-26T08:21:39.788Z,65.13
2022-12-26T08:24:08.028Z,77.13
2022-12-26T08:26:36.122Z,88.95
2022-12-26T08:29:04.197Z,75.63
2022-12-26T08:31:32.341Z,77.13
2022-12-26T08:34:00.458Z,80.35
2022-12-26T08:36:31.981Z,81.53
2022-12-26T08:39:00.074Z,83.18
2022-12-26T08:41:28.193Z,82.78
2022-12-26T08:46:44.487Z,81.10
2022-12-26T08:49:12.597Z,81.72
2022-12-26T08:51:42.089Z,84.95
2022-12-26T08:54:10.174Z,80.70
2022-12-26T08:56:38.332Z,81.60
2022-12-26T08:59:07.987Z,77.38
2022-12-26T09:01:36.275Z,79.85
2022-12-26T09:04:06.719Z,65.72
2022-12-26T09:06:35.273Z,65.00
2022-12-26T09:09:04.801Z,65.22
2022-12-26T09:11:32.919Z,63.95
2022-12-26T09:14:02.188Z,61.67
2022-12-26T09:16:37.485Z,61.92
2022-12-26T09:19:06.808Z,57.30
2022-12-26T09:21:35.174Z,59.30
2022-12-26T09:24:07.013Z,58.83
2022-12-26T09:26:35.214Z,61.80
2022-12-26T09:29:03.362Z,53.28
2022-12-26T09:31:32.344Z,51.05
2022-12-26T09:34:00.613Z,49.97
2022-12-26T09:36:30.561Z,49.30
2022-12-26T09:38:59.025Z,51.92
2022-12-26T09:41:37.975Z,52.17
2022-12-26T09:44:08.022Z,51.92
2022-12-26T09:46:37.508Z,58.17
2022-12-26T09:49:09.818Z,62.92
2022-12-26T09:51:38.873Z,83.68
2022-12-26T09:54:07.464Z,92.10
2022-12-26T09:57:02.189Z,109.30
2022-12-26T09:59:26.586Z,112.78
2022-12-26T10:01:55.499Z,136.73
2022-12-26T10:04:29.641Z,146.23
2022-12-26T10:07:04.914Z,134.38
2022-12-26T10:09:56.419Z,142.55
2022-12-26T10:12:34.478Z,128.05
2022-12-26T10:15:07.815Z,111.18
2022-12-26T10:17:38.143Z,117.00
2022-12-26T10:20:19.111Z,112.72
2022-12-26T10:23:06.084Z,113.70
2022-12-26T10:25:42.268Z,116.50
2022-12-26T10:28:17.130Z,109.85
2022-12-26T10:30:45.287Z,105.78
2022-12-26T10:33:15.274Z,116.18
2022-12-26T10:35:44.229Z,115.20
2022-12-26T10:38:14.277Z,98.55
2022-12-26T10:40:43.899Z,112.85
2022-12-26T10:43:22.725Z,103.40
2022-12-26T10:45:53.339Z,85.25
2022-12-26T10:48:21.495Z,89.35
2022-12-26T10:50:50.084Z,84.63
2022-12-26T10:53:18.172Z,88.40
2022-12-26T10:55:46.231Z,91.25
2022-12-26T10:58:19.063Z,89.07
2022-12-26T11:00:47.207Z,93.10
2022-12-26T11:03:16.158Z,87.70
2022-12-26T11:08:40.849Z,76.68
2022-12-26T11:11:13.948Z,81.35
2022-12-26T11:13:47.519Z,84.18
2022-12-26T11:16:15.821Z,76.82
2022-12-26T11:18:48.556Z,76.97
2022-12-26T11:21:23.242Z,75.93
2022-12-26T11:23:52.486Z,74.05
2022-12-26T11:26:23.441Z,76.53
2022-12-26T11:29:06.884Z,72.88
2022-12-26T11:31:35.104Z,69.10
2022-12-26T11:34:03.403Z,71.60
2022-12-26T11:36:32.776Z,76.78
2022-12-26T11:39:02.026Z,80.88
2022-12-26T11:41:39.759Z,75.72
2022-12-26T11:44:20.237Z,77.70
2022-12-26T11:46:51.134Z,80.20
2022-12-26T11:49:21.984Z,75.10
2022-12-26T11:51:55.650Z,76.57
2022-12-26T11:54:32.619Z,78.50
2022-12-26T11:57:20.784Z,74.05
2022-12-26T11:59:50.864Z,72.80
2022-12-26T12:02:29.946Z,73.25
2022-12-26T12:05:00.958Z,72.90
2022-12-26T12:08:07.286Z,80.57
2022-12-26T12:10:47.892Z,77.28
2022-12-26T12:13:25.017Z,92.45
2022-12-26T12:15:57.862Z,89.95
2022-12-26T12:18:33.261Z,87.93
2022-12-26T12:21:06.145Z,96.35
2022-12-26T12:23:44.571Z,98.38
2022-12-26T12:26:15.686Z,93.93
2022-12-26T12:29:11.679Z,88.15
2022-12-26T12:31:48.191Z,96.57
2022-12-26T12:34:22.194Z,96.38
2022-12-26T12:36:55.863Z,102.47
2022-12-26T12:39:30.964Z,102.53
2022-12-26T12:42:15.347Z,102.10
2022-12-26T12:44:59.909Z,104.63
2022-12-26T12:47:35.598Z,97.65
2022-12-26T12:50:07.423Z,101.32
2022-12-26T12:52:42.596Z,97.88
2022-12-26T12:55:50.290Z,96.63
2022-12-26T12:58:23.332Z,98.75
2022-12-26T13:00:53.483Z,100.57
2022-12-26T13:03:27.418Z,97.22
2022-12-26T13:05:58.396Z,101.60
2022-12-26T13:08:28.318Z,94.55
2022-12-26T13:10:59.166Z,95.50
2022-12-26T13:13:28.874Z,98.38
2022-12-26T13:15:58.829Z,99.30
2022-12-26T13:18:29.622Z,98.55
2022-12-26T13:21:00.326Z,109.57
2022-12-26T13:23:48.536Z,104.10
2022-12-26T13:26:19.089Z,103.15
2022-12-26T13:28:53.077Z,104.78
2022-12-26T13:31:22.154Z,104.60
2022-12-26T13:33:51.747Z,104.22
2022-12-26T13:36:37.422Z,106.65
2022-12-26T13:39:26.736Z,111.00
2022-12-26T13:42:13.531Z,113.28
2022-12-26T13:44:41.720Z,105.03
2022-12-26T13:47:34.539Z,103.85
2022-12-26T13:50:35.668Z,105.20
2022-12-26T13:53:05.330Z,107.70
2022-12-26T13:55:44.126Z,105.35
2022-12-26T13:58:24.792Z,108.53
2022-12-26T14:00:52.963Z,108.40
2022-12-26T14:03:55.104Z,109.70
2022-12-26T14:06:50.939Z,104.50
2022-12-26T14:09:43.035Z,98.03
2022-12-26T14:12:46.341Z,104.88
2022-12-26T14:15:23.605Z,102.82
2022-12-26T14:17:58.876Z,99.47
2022-12-26T14:20:39.432Z,109.57
2022-12-26T14:23:25.485Z,105.15
2022-12-26T14:25:59.465Z,110.50
2022-12-26T14:28:29.358Z,109.25
2022-12-26T14:31:06.206Z,111.68
2022-12-26T14:33:36.794Z,113.43
2022-12-26T14:36:18.341Z,113.68
2022-12-26T14:38:48.983Z,115.93
2022-12-26T14:41:33.005Z,109.30
2022-12-26T14:44:11.371Z,120.07
2022-12-26T14:47:02.992Z,114.72
2022-12-26T14:49:39.505Z,119.18
2022-12-26T14:52:40.878Z,122.13
2022-12-26T14:55:40.251Z,109.60
2022-12-26T14:58:29.338Z,111.95
2022-12-26T15:00:58.223Z,113.38
2022-12-26T15:03:47.811Z,108.65
2022-12-26T15:06:43.828Z,111.95
2022-12-26T15:09:50.758Z,100.28
2022-12-26T15:12:58.365Z,99.88
2022-12-26T15:15:32.768Z,94.88
2022-12-26T15:18:23.841Z,99.53
2022-12-26T15:21:09.136Z,96.50
2022-12-26T15:24:11.684Z,100.65
2022-12-26T15:27:07.758Z,102.50
2022-12-26T15:30:00.872Z,105.38
2022-12-26T15:32:33.329Z,101.38
2022-12-26T15:35:07.446Z,102.85
2022-12-26T15:37:56.454Z,101.00
2022-12-26T15:40:25.429Z,99.53
2022-12-26T15:43:00.951Z,102.10
2022-12-26T15:45:41.166Z,93.28
2022-12-26T15:48:18.645Z,90.97
2022-12-26T15:50:53.217Z,89.40
2022-12-26T15:53:26.721Z,86.47
2022-12-26T15:56:08.872Z,86.28
2022-12-26T15:58:50.356Z,87.70
2022-12-26T16:01:39.716Z,91.05
2022-12-26T16:04:14.316Z,85.88
2022-12-26T16:07:00.221Z,82.47
2022-12-26T16:09:38.701Z,82.95
2022-12-26T16:12:21.408Z,84.53
2022-12-26T16:14:50.002Z,82.55
2022-12-26T16:17:22.918Z,80.88
2022-12-26T16:19:53.308Z,79.05
2022-12-26T16:22:44.149Z,76.07
2022-12-26T16:25:12.889Z,76.20
2022-12-26T16:27:40.960Z,70.10
2022-12-26T16:30:14.202Z,77.85
2022-12-26T16:32:43.017Z,78.70
2022-12-26T16:35:19.569Z,76.53
2022-12-26T16:37:47.730Z,77.35
2022-12-26T16:40:19.438Z,75.32
2022-12-26T16:43:00.340Z,75.20
2022-12-26T16:45:29.075Z,75.55
2022-12-26T16:47:57.315Z,74.28
2022-12-26T16:50:28.595Z,74.88
2022-12-26T16:53:15.080Z,75.28
2022-12-26T16:55:46.678Z,79.13
2022-12-26T16:58:17.322Z,73.80
2022-12-26T17:00:50.338Z,71.35
2022-12-26T17:03:27.646Z,75.32
2022-12-26T17:05:57.345Z,77.35
2022-12-26T17:08:26.137Z,84.72
2022-12-26T17:10:54.208Z,78.82
2022-12-26T17:13:23.540Z,82.95
2022-12-26T17:15:53.314Z,79.28
2022-12-26T17:18:32.386Z,80.35
2022-12-26T17:21:31.386Z,81.93
2022-12-26T17:24:13.207Z,85.00
2022-12-26T17:26:42.051Z,111.45
2022-12-26T17:29:38.442Z,103.32
2022-12-26T17:32:09.800Z,107.50
2022-12-26T17:34:38.868Z,104.15
2022-12-26T17:37:18.992Z,96.40
2022-12-26T17:39:52.695Z,100.03
2022-12-26T17:42:20.831Z,104.78
2022-12-26T17:44:48.903Z,103.70
2022-12-26T17:47:22.621Z,101.50
2022-12-26T17:49:51.393Z,102.38
2022-12-26T17:52:21.665Z,106.93
2022-12-26T17:54:50.306Z,103.25
2022-12-26T17:57:20.361Z,102.28
2022-12-26T17:59:48.631Z,96.22
2022-12-26T18:02:16.835Z,103.40
2022-12-26T18:04:45.078Z,99.30
2022-12-26T18:07:14.383Z,103.05
2022-12-26T18:09:43.842Z,109.03
2022-12-26T18:12:12.820Z,104.47
2022-12-26T18:14:40.937Z,110.30
2022-12-26T18:17:09.127Z,112.57
2022-12-26T18:19:37.269Z,110.85
2022-12-26T18:22:06.194Z,111.50
2022-12-26T18:24:34.429Z,112.45
2022-12-26T18:27:04.276Z,125.00
2022-12-26T18:29:32.438Z,117.57
2022-12-26T18:32:00.614Z,109.63
2022-12-26T18:34:28.830Z,116.65
2022-12-26T18:36:57.016Z,116.40
2022-12-26T18:39:25.451Z,113.05
2022-12-26T18:41:53.535Z,117.95
2022-12-26T18:44:23.065Z,110.05
2022-12-26T18:46:51.891Z,119.03
2022-12-26T18:49:20.083Z,134.25
2022-12-26T18:51:48.266Z,135.95
2022-12-26T18:54:16.497Z,134.73
2022-12-26T18:56:44.626Z,135.43
2022-12-26T18:59:13.267Z,134.60
2022-12-26T19:01:42.825Z,125.85
2022-12-26T19:04:11.178Z,127.43
2022-12-26T19:06:39.391Z,127.00
2022-12-26T19:09:07.481Z,124.18
2022-12-26T19:11:35.763Z,119.68
2022-12-26T19:14:07.803Z,120.70
2022-12-26T19:16:36.044Z,125.18
2022-12-26T19:19:05.699Z,125.18
2022-12-26T19:21:33.796Z,123.20
2022-12-26T19:24:02.003Z,128.73
2022-12-26T19:26:30.106Z,120.80
2022-12-26T19:28:58.234Z,121.53
2022-12-26T19:31:26.439Z,122.13
2022-12-26T19:33:54.639Z,115.65
2022-12-26T19:36:24.137Z,120.15
2022-12-26T19:38:53.823Z,116.20
2022-12-26T19:41:22.091Z,119.22
2022-12-26T19:43:55.460Z,110.05
2022-12-26T19:46:23.628Z,111.82
2022-12-26T19:48:51.793Z,108.10
2022-12-26T19:51:20.185Z,109.57
2022-12-26T19:53:49.691Z,112.97
2022-12-26T19:56:18.858Z,121.30
2022-12-26T19:58:50.459Z,115.00
2022-12-26T20:01:22.711Z,116.07
2022-12-26T20:03:50.856Z,115.55
2022-12-26T20:06:20.391Z,111.15
2022-12-26T20:08:50.505Z,109.75
2022-12-26T20:11:21.557Z,110.30
2022-12-26T20:13:49.805Z,107.68
2022-12-26T20:17:03.162Z,103.75
2022-12-26T20:19:11.287Z,112.93
2022-12-26T20:21:39.388Z,109.00
2022-12-26T20:24:10.638Z,111.25
2022-12-26T20:26:38.733Z,111.40
2022-12-26T20:29:08.421Z,112.22
2022-12-26T20:31:36.612Z,104.18
2022-12-26T20:34:04.853Z,108.05
2022-12-26T20:36:33.958Z,106.60
2022-12-26T20:39:03.069Z,104.18
2022-12-26T20:41:32.591Z,101.18
2022-12-26T20:44:00.716Z,104.60
2022-12-26T20:46:31.930Z,106.15
2022-12-26T20:49:01.337Z,103.38
2022-12-26T20:51:36.860Z,105.68
2022-12-26T20:54:06.538Z,98.10
2022-12-26T20:56:36.344Z,101.60
2022-12-26T20:59:04.561Z,99.60
2022-12-26T21:01:32.772Z,94.63
2022-12-26T21:04:01.129Z,92.25
2022-12-26T21:06:31.203Z,93.97
2022-12-26T21:08:59.432Z,99.43
2022-12-26T21:11:28.401Z,95.07
2022-12-26T21:13:59.529Z,97.65
2022-12-26T21:16:28.645Z,90.68
2022-12-26T21:18:57.373Z,95.93
2022-12-26T21:21:26.410Z,95.55
2022-12-26T21:23:56.596Z,93.25
2022-12-26T21:26:24.938Z,89.97
2022-12-26T21:28:57.822Z,89.32
2022-12-26T21:31:25.976Z,89.13
2022-12-26T21:33:56.027Z,89.53
2022-12-26T21:36:24.443Z,88.03
2022-12-26T21:38:52.898Z,86.10
2022-12-26T21:41:21.337Z,86.65
2022-12-26T21:43:49.744Z,82.22
2022-12-26T21:46:20.113Z,87.15
2022-12-26T21:48:49.884Z,84.18
2022-12-26T21:51:18.921Z,81.90
2022-12-26T21:53:47.114Z,80.95
2022-12-26T21:56:15.088Z,83.35
2022-12-26T21:59:00.531Z,84.07
2022-12-26T22:01:30.318Z,83.10
2022-12-26T22:04:15.659Z,80.45
2022-12-26T22:06:43.951Z,77.72
2022-12-26T22:09:12.488Z,80.10
2022-12-26T22:11:58.152Z,79.47
2022-12-26T22:14:26.234Z,79.22
2022-12-26T22:16:56.169Z,81.25
2022-12-26T22:19:25.278Z,77.30
2022-12-26T22:21:53.369Z,75.20
2022-12-26T22:24:21.845Z,78.25
2022-12-26T22:26:49.969Z,75.32
2022-12-26T22:29:18.258Z,73.97
2022-12-26T22:31:46.361Z,74.10
2022-12-26T22:34:16.930Z,72.43
2022-12-26T22:36:45.012Z,72.80
2022-12-26T22:39:13.797Z,71.20
2022-12-26T22:41:41.950Z,69.32
2022-12-26T22:44:12.827Z,68.25
2022-12-26T22:46:41.068Z,70.07
2022-12-26T22:49:09.177Z,67.85
2022-12-26T22:51:39.414Z,66.70
2022-12-26T22:54:07.607Z,69.68
2022-12-26T22:56:35.724Z,68.18
2022-12-26T22:59:04.017Z,66.90
2022-12-26T23:01:32.162Z,68.75
2022-12-26T23:04:01.474Z,69.30
2022-12-26T23:06:30.424Z,62.72
2022-12-26T23:09:02.077Z,65.03
2022-12-26T23:11:34.747Z,63.60
2022-12-26T23:14:04.902Z,64.30
2022-12-26T23:16:34.698Z,63.85
2022-12-26T23:19:21.291Z,63.15
2022-12-26T23:21:50.542Z,61.60
2022-12-26T23:24:20.989Z,63.72
2022-12-26T23:26:49.997Z,61.55
2022-12-26T23:29:37.247Z,62.65
2022-12-26T23:32:05.825Z,57.00
2022-12-26T23:34:33.954Z,57.50
2022-12-26T23:37:02.111Z,61.60
2022-12-26T23:39:31.563Z,58.50
2022-12-26T23:41:59.701Z,55.72
2022-12-26T23:44:27.825Z,58.55
2022-12-26T23:46:55.957Z,55.38
2022-12-26T23:49:24.080Z,54.65
2022-12-26T23:51:52.178Z,58.13
2022-12-26T23:54:20.271Z,54.78
2022-12-26T23:56:49.809Z,53.95
2022-12-26T23:59:19.061Z,55.30
